createdAt,value
2022-10-07T00:03:46.904Z,100.00
2022-10-07T00:08:53.167Z,100.00
2022-10-07T00:13:59.682Z,100.00
2022-10-07T00:19:05.602Z,100.00
2022-10-07T00:24:11.143Z,100.00
2022-10-07T00:29:14.426Z,100.00
2022-10-07T00:34:17.635Z,100.00
2022-10-07T00:39:20.843Z,100.00
2022-10-07T00:44:45.513Z,100.00
2022-10-07T00:49:51.277Z,100.00
2022-10-07T00:54:57.936Z,100.00
2022-10-07T01:00:02.886Z,100.00
2022-10-07T01:05:09.931Z,100.00
2022-10-07T01:10:19.147Z,100.00
2022-10-07T01:15:46.405Z,100.00
2022-10-07T01:20:54.521Z,100.00
2022-10-07T01:26:32.004Z,100.00
2022-10-07T01:31:52.225Z,100.00
2022-10-07T01:37:00.832Z,100.00
2022-10-07T01:42:05.429Z,100.00
2022-10-07T01:47:08.564Z,100.00
2022-10-07T01:52:12.011Z,100.00
2022-10-07T01:57:40.562Z,100.00
2022-10-07T02:02:52.712Z,100.00
2022-10-07T02:08:05.087Z,100.00
2022-10-07T02:13:18.450Z,100.00
2022-10-07T02:18:21.682Z,100.00
2022-10-07T02:23:26.022Z,100.00
2022-10-07T02:28:30.767Z,100.00
2022-10-07T02:33:36.213Z,100.00
2022-10-07T02:38:39.958Z,100.00
2022-10-07T02:43:53.758Z,100.00
2022-10-07T02:49:08.822Z,100.00
2022-10-07T02:54:13.811Z,100.00
2022-10-07T02:59:19.316Z,100.00
2022-10-07T03:04:23.699Z,100.00
2022-10-07T03:09:28.405Z,100.00
2022-10-07T03:14:31.775Z,100.00
2022-10-07T03:19:35.211Z,100.00
2022-10-07T03:24:38.924Z,100.00
2022-10-07T03:29:42.371Z,100.00
2022-10-07T03:34:45.606Z,100.00
2022-10-07T03:39:49.392Z,100.00
2022-10-07T03:44:53.250Z,100.00
2022-10-07T03:49:58.292Z,100.00
2022-10-07T03:55:01.487Z,100.00
2022-10-07T04:00:05.105Z,100.00
2022-10-07T04:05:09.201Z,100.00
2022-10-07T04:10:14.729Z,100.00
2022-10-07T04:15:18.983Z,100.00
2022-10-07T04:20:22.140Z,100.00
2022-10-07T04:25:34.164Z,100.00
2022-10-07T04:30:43.957Z,100.00
2022-10-07T04:35:49.345Z,100.00
2022-10-07T04:40:52.465Z,100.00
2022-10-07T04:46:06.426Z,100.00
2022-10-07T04:51:10.878Z,100.00
2022-10-07T04:56:14.750Z,100.00
2022-10-07T05:01:17.999Z,100.00
2022-10-07T05:06:21.216Z,100.00
2022-10-07T05:11:26.155Z,100.00
2022-10-07T05:16:29.755Z,100.00
2022-10-07T05:21:33.929Z,100.00
2022-10-07T05:26:37.111Z,100.00
2022-10-07T05:31:40.452Z,100.00
2022-10-07T05:36:45.744Z,100.00
2022-10-07T05:41:49.157Z,100.00
2022-10-07T05:46:52.439Z,100.00
2022-10-07T05:51:55.548Z,100.00
2022-10-07T05:56:58.854Z,100.00
2022-10-07T06:02:02.282Z,100.00
2022-10-07T06:07:06.702Z,100.00
2022-10-07T06:12:29.377Z,100.00
2022-10-07T06:17:32.548Z,100.00
2022-10-07T06:22:35.789Z,100.00
2022-10-07T06:27:40.067Z,100.00
2022-10-07T06:32:43.166Z,100.00
2022-10-07T06:37:46.817Z,100.00
2022-10-07T06:42:50.507Z,84.20
2022-10-07T06:47:53.716Z,79.10
2022-10-07T06:52:56.878Z,69.45
2022-10-07T06:58:00.273Z,60.72
2022-10-07T07:03:03.936Z,-1.00
2022-10-07T07:08:09.078Z,-1.00
2022-10-07T07:13:12.879Z,-1.00
2022-10-07T07:18:16.014Z,-1.00
2022-10-07T07:23:20.400Z,-1.00
2022-10-07T07:28:23.608Z,-1.00
2022-10-07T07:33:27.662Z,-1.00
2022-10-07T07:38:31.363Z,-1.00
2022-10-07T07:43:34.650Z,-1.00
2022-10-07T07:48:38.667Z,-1.00
2022-10-07T07:53:41.897Z,-1.00
2022-10-07T07:58:45.666Z,-1.00
2022-10-07T08:03:49.547Z,-1.00
2022-10-07T08:08:57.671Z,-1.00
2022-10-07T08:14:03.503Z,-1.00
2022-10-07T08:19:06.705Z,-1.00
2022-10-07T08:24:15.413Z,-1.00
2022-10-07T08:29:24.249Z,-1.00
2022-10-07T08:34:27.698Z,-1.00
2022-10-07T08:39:31.483Z,-1.00
2022-10-07T08:44:40.287Z,-1.00
2022-10-07T08:50:07.837Z,-1.00
2022-10-07T08:55:46.247Z,-1.00
2022-10-07T09:01:15.776Z,-1.00
2022-10-07T09:07:01.580Z,-1.00
2022-10-07T09:12:51.045Z,47.55
2022-10-07T09:18:02.327Z,49.74
2022-10-07T09:23:07.743Z,51.04
2022-10-07T09:28:17.366Z,52.69
2022-10-07T09:33:24.250Z,54.26
2022-10-07T09:38:48.833Z,55.29
2022-10-07T09:44:15.501Z,55.60
2022-10-07T09:49:49.096Z,56.92
2022-10-07T09:54:54.807Z,57.70
2022-10-07T10:00:13.276Z,58.67
2022-10-07T10:05:29.333Z,58.93
2022-10-07T10:10:36.748Z,58.39
2022-10-07T10:15:42.195Z,58.78
2022-10-07T10:20:46.608Z,59.25
2022-10-07T10:26:33.604Z,59.34
2022-10-07T10:32:05.892Z,59.13
2022-10-07T10:37:16.538Z,59.91
2022-10-07T10:42:41.094Z,59.01
2022-10-07T10:47:53.465Z,58.34
2022-10-07T10:53:21.744Z,59.05
2022-10-07T10:58:58.444Z,58.61
2022-10-07T11:04:12.566Z,59.04
2022-10-07T11:09:44.405Z,58.79
2022-10-07T11:14:57.619Z,58.63
2022-10-07T11:20:18.033Z,58.97
2022-10-07T11:25:29.579Z,59.29
2022-10-07T11:30:43.358Z,59.40
2022-10-07T11:35:55.779Z,60.10
2022-10-07T11:41:09.204Z,59.25
2022-10-07T11:46:36.516Z,59.45
2022-10-07T11:51:54.808Z,59.95
2022-10-07T11:57:01.088Z,59.06
2022-10-07T12:02:05.211Z,57.84
2022-10-07T12:07:33.502Z,57.73
2022-10-07T12:12:46.953Z,56.76
2022-10-07T12:18:22.221Z,56.84
2022-10-07T12:23:29.940Z,57.31
2022-10-07T12:28:38.129Z,57.23
2022-10-07T12:33:44.236Z,57.16
2022-10-07T12:39:08.283Z,57.43
2022-10-07T12:44:23.263Z,57.64
2022-10-07T12:49:37.045Z,56.97
2022-10-07T12:54:54.556Z,56.62
2022-10-07T13:00:12.710Z,56.13
2022-10-07T13:05:53.780Z,55.82
2022-10-07T13:11:16.186Z,56.66
2022-10-07T13:16:43.060Z,57.01
2022-10-07T13:22:10.391Z,57.76
2022-10-07T13:27:42.554Z,57.67
2022-10-07T13:32:46.687Z,56.81
2022-10-07T13:37:49.968Z,57.21
2022-10-07T13:42:59.390Z,57.20
2022-10-07T13:48:02.587Z,57.69
2022-10-07T13:53:06.003Z,57.54
2022-10-07T13:58:10.165Z,57.79
2022-10-07T14:03:15.408Z,58.21
2022-10-07T14:08:22.717Z,58.03
2022-10-07T14:13:29.320Z,57.81
2022-10-07T14:18:32.531Z,57.80
2022-10-07T14:23:38.575Z,57.98
2022-10-07T14:28:43.256Z,58.61
2022-10-07T14:34:24.090Z,59.46
2022-10-07T14:39:48.075Z,59.40
2022-10-07T14:44:55.014Z,59.54
2022-10-07T14:50:02.252Z,60.13
2022-10-07T14:55:15.087Z,60.80
2022-10-07T15:00:27.861Z,61.50
2022-10-07T15:05:34.029Z,62.43
2022-10-07T15:10:39.012Z,62.92
2022-10-07T15:15:45.070Z,63.13
2022-10-07T15:20:55.857Z,63.36
2022-10-07T15:25:59.008Z,63.71
2022-10-07T15:31:10.522Z,64.12
2022-10-07T15:36:14.636Z,65.00
2022-10-07T15:41:38.772Z,65.51
2022-10-07T15:46:43.261Z,66.25
2022-10-07T15:51:47.031Z,66.79
2022-10-07T15:56:50.198Z,67.64
2022-10-07T16:01:54.386Z,68.54
2022-10-07T16:06:58.389Z,68.91
2022-10-07T16:12:01.679Z,69.54
2022-10-07T16:17:05.257Z,69.99
2022-10-07T16:22:08.352Z,70.54
2022-10-07T16:27:11.520Z,71.49
2022-10-07T16:32:15.117Z,72.04
2022-10-07T16:37:18.299Z,72.33
2022-10-07T16:42:21.918Z,73.12
2022-10-07T16:47:25.445Z,73.31
2022-10-07T16:52:28.633Z,74.02
2022-10-07T16:57:31.748Z,74.36
2022-10-07T17:02:36.029Z,74.99
2022-10-07T17:07:39.381Z,75.54
2022-10-07T17:12:43.676Z,76.66
2022-10-07T17:17:48.809Z,78.09
2022-10-07T17:22:52.097Z,78.61
2022-10-07T17:27:55.306Z,79.42
2022-10-07T17:32:58.433Z,81.44
2022-10-07T17:38:06.731Z,82.20
2022-10-07T17:43:09.820Z,82.00
2022-10-07T17:48:14.173Z,82.97
2022-10-07T17:53:17.384Z,84.29
2022-10-07T17:58:20.637Z,85.82
2022-10-07T18:03:25.012Z,86.38
2022-10-07T18:08:28.308Z,86.56
2022-10-07T18:13:53.613Z,87.17
2022-10-07T18:18:57.463Z,88.69
2022-10-07T18:24:01.950Z,91.47
2022-10-07T18:29:05.121Z,96.20
2022-10-07T18:34:10.788Z,100.00
2022-10-07T18:39:14.077Z,100.00
2022-10-07T18:44:17.300Z,100.00
2022-10-07T18:49:20.515Z,100.00
2022-10-07T18:54:24.845Z,100.00
2022-10-07T18:59:28.054Z,100.00
2022-10-07T19:04:31.344Z,100.00
2022-10-07T19:09:34.573Z,100.00
2022-10-07T19:14:39.051Z,100.00
2022-10-07T19:19:42.547Z,100.00
2022-10-07T19:25:05.580Z,100.00
2022-10-07T19:30:09.492Z,100.00
2022-10-07T19:35:13.902Z,100.00
2022-10-07T19:40:17.981Z,100.00
2022-10-07T19:45:22.780Z,100.00
2022-10-07T19:50:25.988Z,100.00
2022-10-07T19:55:34.407Z,100.00
2022-10-07T20:00:37.597Z,100.00
2022-10-07T20:05:44.920Z,100.00
2022-10-07T20:10:48.128Z,100.00
2022-10-07T20:15:51.454Z,100.00
2022-10-07T20:21:13.493Z,100.00
2022-10-07T20:26:24.216Z,100.00
2022-10-07T20:31:31.954Z,100.00
2022-10-07T20:36:37.522Z,100.00
2022-10-07T20:41:59.364Z,100.00
2022-10-07T20:47:04.219Z,100.00
2022-10-07T20:52:18.328Z,100.00
2022-10-07T20:57:24.272Z,100.00
2022-10-07T21:02:28.800Z,100.00
2022-10-07T21:07:32.335Z,100.00
2022-10-07T21:12:35.660Z,100.00
2022-10-07T21:17:39.583Z,100.00
2022-10-07T21:22:42.717Z,100.00
2022-10-07T21:27:45.974Z,100.00
2022-10-07T21:32:50.428Z,100.00
2022-10-07T21:37:53.777Z,100.00
2022-10-07T21:42:57.163Z,100.00
2022-10-07T21:48:00.313Z,100.00
2022-10-07T21:53:05.379Z,100.00
2022-10-07T21:58:08.427Z,100.00
2022-10-07T22:03:12.648Z,100.00
2022-10-07T22:08:37.456Z,100.00
2022-10-07T22:13:55.583Z,100.00
2022-10-07T22:18:58.632Z,100.00
2022-10-07T22:24:05.686Z,100.00
2022-10-07T22:29:10.577Z,100.00
2022-10-07T22:34:33.967Z,100.00
2022-10-07T22:39:46.789Z,100.00
2022-10-07T22:44:51.806Z,100.00
2022-10-07T22:49:55.972Z,100.00
2022-10-07T22:54:59.141Z,100.00
2022-10-07T23:00:07.519Z,100.00
2022-10-07T23:05:10.805Z,100.00
2022-10-07T23:10:14.322Z,100.00
2022-10-07T23:15:21.057Z,100.00
2022-10-07T23:20:25.873Z,100.00
2022-10-07T23:25:28.996Z,100.00
2022-10-07T23:31:05.025Z,100.00
2022-10-07T23:36:11.603Z,100.00
2022-10-07T23:41:17.863Z,100.00
2022-10-07T23:46:22.611Z,100.00
2022-10-07T23:51:32.553Z,100.00
2022-10-07T23:56:36.601Z,100.00
